createdAt,value
2023-03-05T00:03:03.728Z,10.87
2023-03-05T00:08:25.464Z,12.67
2023-03-05T00:13:47.480Z,9.53
2023-03-05T00:19:10.376Z,9.27
2023-03-05T00:24:32.175Z,14.90
2023-03-05T00:29:53.829Z,17.27
2023-03-05T00:35:15.446Z,14.17
2023-03-05T00:40:42.018Z,15.27
2023-03-05T00:46:04.993Z,8.97
2023-03-05T00:51:27.084Z,13.60
2023-03-05T00:56:49.364Z,13.37
2023-03-05T01:02:11.014Z,18.83
2023-03-05T01:07:32.641Z,22.03
2023-03-05T01:12:55.204Z,15.77
2023-03-05T01:18:17.543Z,11.53
2023-03-05T01:23:39.026Z,14.97
2023-03-05T01:29:01.127Z,16.03
2023-03-05T01:34:22.725Z,13.40
2023-03-05T01:39:44.475Z,16.30
2023-03-05T01:45:12.682Z,11.17
2023-03-05T01:50:34.750Z,18.57
2023-03-05T01:55:56.370Z,15.53
2023-03-05T02:01:18.688Z,18.07
2023-03-05T02:06:41.691Z,13.67
2023-03-05T02:12:03.285Z,12.50
2023-03-05T02:17:26.897Z,10.60
2023-03-05T02:22:48.548Z,11.23
2023-03-05T02:28:28.570Z,11.63
2023-03-05T02:33:50.907Z,12.40
2023-03-05T02:39:13.788Z,12.27
2023-03-05T02:44:35.769Z,7.37
2023-03-05T02:49:57.828Z,13.40
2023-03-05T02:55:20.286Z,9.10
2023-03-05T03:00:42.734Z,13.23
2023-03-05T03:06:07.720Z,7.80
2023-03-05T03:11:29.356Z,8.33
2023-03-05T03:16:51.178Z,8.60
2023-03-05T03:22:15.237Z,12.43
2023-03-05T03:27:36.977Z,6.93
2023-03-05T03:32:59.038Z,5.07
2023-03-05T03:38:20.463Z,10.53
2023-03-05T03:43:42.141Z,10.80
2023-03-05T03:49:03.943Z,12.97
2023-03-05T03:54:25.616Z,13.43
2023-03-05T03:59:47.029Z,9.90
2023-03-05T04:05:09.321Z,9.37
2023-03-05T04:10:31.145Z,12.60
2023-03-05T04:15:53.089Z,11.53
2023-03-05T04:21:15.219Z,7.20
2023-03-05T04:26:37.218Z,12.50
2023-03-05T04:31:58.512Z,9.20
2023-03-05T04:37:20.274Z,9.53
2023-03-05T04:42:41.814Z,6.83
2023-03-05T04:48:03.620Z,2.87
2023-03-05T04:53:25.422Z,3.77
2023-03-05T04:58:47.668Z,3.80
2023-03-05T05:04:09.632Z,3.10
2023-03-05T05:09:31.572Z,2.07
2023-03-05T05:14:53.272Z,2.27
2023-03-05T05:20:16.780Z,2.57
2023-03-05T05:25:38.266Z,2.17
2023-03-05T05:30:59.977Z,4.50
2023-03-05T05:36:22.648Z,6.07
2023-03-05T05:41:44.724Z,2.40
2023-03-05T05:47:06.532Z,2.37
2023-03-05T05:52:28.085Z,4.73
2023-03-05T05:57:49.877Z,2.00
2023-03-05T06:03:11.522Z,5.17
2023-03-05T06:08:33.024Z,3.77
2023-03-05T06:13:54.920Z,7.13
2023-03-05T06:19:17.066Z,3.63
2023-03-05T06:24:39.490Z,2.73
2023-03-05T06:30:01.210Z,6.40
2023-03-05T06:35:22.802Z,5.67
2023-03-05T06:40:44.457Z,1.83
2023-03-05T06:46:13.532Z,7.30
2023-03-05T06:51:37.998Z,5.93
2023-03-05T06:56:59.636Z,2.47
2023-03-05T07:02:21.643Z,3.27
2023-03-05T07:07:43.079Z,2.93
2023-03-05T07:13:04.917Z,4.80
2023-03-05T07:18:26.290Z,3.00
2023-03-05T07:23:48.877Z,2.90
2023-03-05T07:29:10.624Z,3.37
2023-03-05T07:34:32.106Z,4.37
2023-03-05T07:39:53.633Z,2.00
2023-03-05T07:45:15.301Z,2.90
2023-03-05T07:50:36.980Z,4.60
2023-03-05T07:55:58.675Z,1.43
2023-03-05T08:01:20.717Z,3.20
2023-03-05T08:06:42.646Z,7.17
2023-03-05T08:12:04.072Z,6.43
2023-03-05T08:17:25.744Z,2.60
2023-03-05T08:22:47.435Z,2.23
2023-03-05T08:28:09.001Z,5.23
2023-03-05T08:33:31.651Z,3.50
2023-03-05T08:38:54.287Z,3.93
2023-03-05T08:44:15.969Z,5.00
2023-03-05T08:49:38.304Z,4.73
2023-03-05T08:54:59.947Z,2.20
2023-03-05T09:00:22.073Z,5.87
2023-03-05T09:05:43.623Z,2.47
2023-03-05T09:11:11.550Z,4.23
2023-03-05T09:16:33.792Z,3.83
2023-03-05T09:21:57.128Z,6.47
2023-03-05T09:27:18.583Z,5.13
2023-03-05T09:32:40.720Z,3.27
2023-03-05T09:38:02.347Z,3.10
2023-03-05T09:43:52.265Z,6.13
2023-03-05T09:49:32.613Z,6.47
2023-03-05T09:54:57.262Z,10.33
2023-03-05T10:00:54.844Z,7.60
2023-03-05T10:06:24.465Z,6.33
2023-03-05T10:12:00.841Z,4.27
2023-03-05T10:17:37.366Z,4.70
2023-03-05T10:23:10.740Z,6.30
2023-03-05T10:28:57.696Z,5.20
2023-03-05T10:34:27.617Z,7.43
2023-03-05T10:40:08.138Z,7.10
2023-03-05T10:45:48.919Z,5.83
2023-03-05T10:51:19.987Z,5.47
2023-03-05T10:56:42.062Z,3.87
2023-03-05T11:02:06.333Z,5.17
2023-03-05T11:07:35.066Z,5.03
2023-03-05T11:12:58.573Z,5.93
2023-03-05T11:18:24.284Z,6.43
2023-03-05T11:24:04.001Z,6.27
2023-03-05T11:29:29.024Z,6.33
2023-03-05T11:34:50.584Z,4.30
2023-03-05T11:40:19.221Z,3.47
2023-03-05T11:45:42.765Z,11.37
2023-03-05T11:51:16.284Z,6.83
2023-03-05T11:56:39.420Z,6.43
2023-03-05T12:02:01.133Z,4.70
2023-03-05T12:07:41.441Z,5.17
2023-03-05T12:13:07.095Z,10.07
2023-03-05T12:18:47.409Z,7.57
2023-03-05T12:24:27.340Z,6.53
2023-03-05T12:29:54.561Z,4.80
2023-03-05T12:35:29.683Z,3.37
2023-03-05T12:40:51.311Z,2.00
2023-03-05T12:46:27.059Z,5.10
2023-03-05T12:51:50.908Z,5.20
2023-03-05T12:57:19.803Z,7.97
2023-03-05T13:02:45.368Z,5.53
2023-03-05T13:08:32.715Z,4.70
2023-03-05T13:13:55.511Z,5.70
2023-03-05T13:19:18.264Z,5.60
2023-03-05T13:24:39.844Z,7.63
2023-03-05T13:30:01.370Z,7.27
2023-03-05T13:35:23.353Z,4.53
2023-03-05T13:40:44.967Z,8.70
2023-03-05T13:46:06.625Z,4.97
2023-03-05T13:51:45.987Z,4.97
2023-03-05T13:57:28.984Z,6.83
2023-03-05T14:02:51.111Z,3.40
2023-03-05T14:08:26.926Z,4.53
2023-03-05T14:13:56.803Z,4.47
2023-03-05T14:19:38.994Z,3.97
2023-03-05T14:25:00.522Z,3.60
2023-03-05T14:30:25.088Z,5.93
2023-03-05T14:35:50.891Z,6.37
2023-03-05T14:41:24.688Z,6.57
2023-03-05T14:46:50.121Z,2.87
2023-03-05T14:52:17.303Z,5.30
2023-03-05T14:57:38.976Z,9.87
2023-03-05T15:03:00.931Z,5.33
2023-03-05T15:08:26.771Z,5.77
2023-03-05T15:13:50.154Z,3.80
2023-03-05T15:19:15.194Z,4.83
2023-03-05T15:24:36.528Z,2.83
2023-03-05T15:29:59.775Z,7.17
2023-03-05T15:35:22.057Z,4.73
2023-03-05T15:40:44.360Z,5.20
2023-03-05T15:46:07.197Z,5.43
2023-03-05T15:51:29.168Z,6.07
2023-03-05T15:56:50.852Z,6.03
2023-03-05T16:02:12.607Z,5.90
2023-03-05T16:07:36.902Z,5.73
2023-03-05T16:13:09.636Z,5.50
2023-03-05T16:18:32.780Z,6.73
2023-03-05T16:23:55.232Z,8.90
2023-03-05T16:29:17.179Z,6.53
2023-03-05T16:34:38.851Z,5.90
2023-03-05T16:40:00.736Z,10.30
2023-03-05T16:45:22.599Z,7.13
2023-03-05T16:50:44.194Z,7.33
2023-03-05T16:56:08.046Z,6.27
2023-03-05T17:01:30.531Z,5.70
2023-03-05T17:06:53.658Z,4.80
2023-03-05T17:12:15.196Z,5.67
2023-03-05T17:17:38.598Z,5.07
2023-03-05T17:23:02.268Z,7.20
2023-03-05T17:28:23.906Z,5.43
2023-03-05T17:33:45.742Z,6.17
2023-03-05T17:39:08.913Z,7.97
2023-03-05T17:44:31.401Z,7.50
2023-03-05T17:49:52.968Z,5.07
2023-03-05T17:55:17.418Z,5.97
2023-03-05T18:00:39.273Z,7.77
2023-03-05T18:06:00.817Z,5.30
2023-03-05T18:11:22.664Z,11.17
2023-03-05T18:16:44.606Z,10.20
2023-03-05T18:22:06.587Z,7.17
2023-03-05T18:27:28.974Z,5.73
2023-03-05T18:32:51.538Z,5.63
2023-03-05T18:38:13.144Z,4.17
2023-03-05T18:43:35.904Z,5.40
2023-03-05T18:48:57.745Z,7.03
2023-03-05T18:54:19.386Z,6.57
2023-03-05T18:59:40.910Z,6.23
2023-03-05T19:05:02.970Z,7.13
2023-03-05T19:10:27.114Z,6.23
2023-03-05T19:15:48.828Z,6.03
2023-03-05T19:21:11.278Z,7.07
2023-03-05T19:26:33.298Z,7.83
2023-03-05T19:31:55.417Z,7.53
2023-03-05T19:37:18.342Z,4.57
2023-03-05T19:42:39.975Z,5.13
2023-03-05T19:48:01.920Z,7.47
2023-03-05T19:53:24.205Z,8.40
2023-03-05T19:58:49.163Z,6.37
2023-03-05T20:04:14.600Z,6.10
2023-03-05T20:09:36.096Z,6.43
2023-03-05T20:14:57.569Z,8.43
2023-03-05T20:20:19.381Z,6.50
2023-03-05T20:25:40.789Z,7.27
2023-03-05T20:31:02.860Z,6.83
2023-03-05T20:36:25.901Z,10.27
2023-03-05T20:41:48.208Z,8.17
2023-03-05T20:47:26.189Z,8.63
2023-03-05T20:52:47.948Z,6.80
2023-03-05T20:58:10.392Z,7.90
2023-03-05T21:03:31.829Z,11.13
2023-03-05T21:08:54.231Z,8.33
2023-03-05T21:14:15.739Z,8.73
2023-03-05T21:19:39.494Z,7.97
2023-03-05T21:25:16.513Z,10.07
2023-03-05T21:30:39.602Z,8.80
2023-03-05T21:36:23.216Z,9.33
2023-03-05T21:41:46.760Z,10.13
2023-03-05T21:47:08.589Z,9.37
2023-03-05T21:52:30.210Z,10.03
2023-03-05T21:57:51.805Z,8.33
2023-03-05T22:03:13.321Z,6.27
2023-03-05T22:08:35.071Z,10.43
2023-03-05T22:13:57.145Z,8.50
2023-03-05T22:19:18.865Z,8.77
2023-03-05T22:24:40.114Z,10.13
2023-03-05T22:30:01.813Z,9.03
2023-03-05T22:35:23.570Z,8.83
2023-03-05T22:40:47.147Z,11.20
2023-03-05T22:46:22.682Z,9.53
2023-03-05T22:51:44.356Z,9.90
2023-03-05T22:57:07.209Z,9.00
2023-03-05T23:02:28.935Z,8.97
2023-03-05T23:07:53.599Z,10.07
2023-03-05T23:13:15.269Z,10.30
2023-03-05T23:18:36.826Z,8.00
2023-03-05T23:23:58.520Z,12.63
2023-03-05T23:29:20.279Z,9.07
2023-03-05T23:34:41.868Z,12.40
2023-03-05T23:40:04.438Z,11.37
2023-03-05T23:45:26.599Z,11.87
2023-03-05T23:50:49.049Z,11.40
2023-03-05T23:56:11.773Z,11.83
